Time;durP1;ratioP1;P1;durP2;ratioP2;P2;SDS_P1;SDS_P2;PMS_P1;PMS_P2;Temp;Humidity;BMP_temperature;BMP_pressure;BME280_temperature;BME280_humidity;BME280_pressure;Samples;Min_cycle;Max_cycle;Signal;HPM_P1;HPM_P2
2021/01/06 00:00:14;;;;;;;;;;;;;;;25.99;29.42;101005.13;5119163;28;1357;-38
2021/01/06 00:02:40;;;;;;;;;;;;;;;25.79;29.94;101002.78;5119198;28;799;-34
2021/01/06 00:05:08;;;;;;;;;;;;;;;25.60;30.22;101003.91;5119072;28;850;-33
2021/01/06 00:07:35;;;;;;;;;;;;;;;25.55;30.32;101010.66;5106777;28;1913;-35
2021/01/06 00:10:00;;;;;;;;;;;;;;;25.51;30.34;101011.13;5098417;28;779;-35
2021/01/06 00:12:25;;;;;;;;;;;;;;;25.84;29.68;101018.44;5098544;28;786;-35
2021/01/06 00:14:50;;;;;;;;;;;;;;;25.76;29.77;101022.81;5098570;28;763;-34
2021/01/06 00:17:16;;;;;;;;;;;;;;;25.41;30.52;101020.19;5098213;28;799;-41
2021/01/06 00:19:41;;;;;;;;;;;;;;;24.98;31.55;101009.47;5098286;28;814;-31
2021/01/06 00:22:06;;;;;;;;;;;;;;;25.72;29.99;101009.84;5106330;28;1005;-35
2021/01/06 00:24:32;;;;;;;;;;;;;;;25.88;29.59;101012.53;5118582;27;751;-34
2021/01/06 00:26:57;;;;;;;;;;;;;;;25.79;29.74;101010.88;5118537;28;1906;-30
2021/01/06 00:29:22;;;;;;;;;;;;;;;25.66;30.08;101011.34;5118649;28;730;-35
2021/01/06 00:31:48;;;;;;;;;;;;;;;25.63;30.11;101015.22;5118387;28;846;-33
2021/01/06 00:34:13;;;;;;;;;;;;;;;25.68;30.02;101020.09;5117209;27;913;-34
2021/01/06 00:36:38;;;;;;;;;;;;;;;25.47;30.47;101020.56;5113049;28;871;-34
2021/01/06 00:39:05;;;;;;;;;;;;;;;25.99;29.87;101024.00;5117784;28;842;-34
2021/01/06 00:41:31;;;;;;;;;;;;;;;25.97;29.57;101024.19;5118118;28;834;-35
2021/01/06 00:43:56;;;;;;;;;;;;;;;25.82;29.92;101026.69;5118713;28;826;-34
2021/01/06 00:46:26;;;;;;;;;;;;;;;26.16;29.49;101020.28;5117482;28;1898;-33
2021/01/06 00:48:51;;;;;;;;;;;;;;;25.50;30.63;101023.75;5118339;28;758;-35
2021/01/06 00:51:17;;;;;;;;;;;;;;;25.61;30.42;101013.69;5117981;28;973;-35
2021/01/06 00:53:42;;;;;;;;;;;;;;;26.06;29.48;101025.00;5118166;28;763;-35
2021/01/06 00:56:07;;;;;;;;;;;;;;;26.20;29.29;101022.63;5117818;28;1197;-34
2021/01/06 00:58:32;;;;;;;;;;;;;;;25.92;29.68;101023.84;5118142;28;767;-35
2021/01/06 01:00:58;;;;;;;;;;;;;;;25.15;31.15;101014.91;5117738;28;1122;-34
2021/01/06 01:03:23;;;;;;;;;;;;;;;26.18;29.29;101028.19;5117909;28;811;-33
2021/01/06 01:05:48;;;;;;;;;;;;;;;25.91;29.87;101028.38;5117317;28;807;-37
2021/01/06 01:08:14;;;;;;;;;;;;;;;25.86;29.70;101025.34;5100118;28;1913;-34
2021/01/06 01:10:40;;;;;;;;;;;;;;;25.79;29.81;101022.47;5111352;28;951;-35
2021/01/06 01:13:07;;;;;;;;;;;;;;;25.87;29.88;101021.66;5117927;28;770;-33
2021/01/06 01:15:32;;;;;;;;;;;;;;;25.87;29.73;101023.50;5117628;28;751;-34
2021/01/06 01:17:58;;;;;;;;;;;;;;;25.65;30.20;101023.13;5117225;28;850;-35
2021/01/06 01:20:23;;;;;;;;;;;;;;;25.73;30.13;101016.91;5117706;28;810;-35
2021/01/06 01:22:48;;;;;;;;;;;;;;;25.79;29.83;101018.97;5117101;28;1008;-35
2021/01/06 01:25:21;;;;;;;;;;;;;;;25.69;30.10;101016.44;5117501;28;778;-35
2021/01/06 01:27:47;;;;;;;;;;;;;;;25.84;29.85;101016.56;5117525;28;1905;-37
2021/01/06 01:30:13;;;;;;;;;;;;;;;25.85;30.15;101014.72;5117321;28;794;-35
2021/01/06 01:32:42;;;;;;;;;;;;;;;25.83;29.85;101022.97;5117382;27;955;-35
2021/01/06 01:35:08;;;;;;;;;;;;;;;25.76;29.93;101020.13;5117503;28;813;-38
2021/01/06 01:37:33;;;;;;;;;;;;;;;25.73;29.92;101028.53;5117173;28;934;-32
2021/01/06 01:39:58;;;;;;;;;;;;;;;25.19;30.98;101022.50;5116910;28;488;-34
2021/01/06 01:42:23;;;;;;;;;;;;;;;25.97;29.93;101034.13;5117549;28;790;-34
2021/01/06 01:44:56;;;;;;;;;;;;;;;25.42;30.59;101029.97;5116958;28;857;-35
2021/01/06 01:47:22;;;;;;;;;;;;;;;25.72;30.26;101026.00;5117281;28;1949;-34
2021/01/06 01:49:47;;;;;;;;;;;;;;;26.53;29.15;101023.47;5116056;28;845;-34
2021/01/06 01:52:39;;;;;;;;;;;;;;;26.25;29.17;101026.53;5115070;28;934;-33
2021/01/06 01:55:04;;;;;;;;;;;;;;;26.04;29.59;101027.88;5115021;28;1162;-33
2021/01/06 01:57:31;;;;;;;;;;;;;;;25.65;30.35;101031.22;5115986;28;800;-35
2021/01/06 02:00:03;;;;;;;;;;;;;;;25.25;30.96;101028.25;5116688;28;924;-34
2021/01/06 02:02:31;;;;;;;;;;;;;;;25.73;30.02;101028.53;5117513;28;713;-33
2021/01/06 02:04:58;;;;;;;;;;;;;;;25.91;29.70;101031.06;5117057;28;763;-34
2021/01/06 02:07:27;;;;;;;;;;;;;;;25.88;29.72;101033.25;5105107;28;1909;-31
2021/01/06 02:09:55;;;;;;;;;;;;;;;25.47;30.47;101029.50;5095119;28;858;-35
2021/01/06 02:12:43;;;;;;;;;;;;;;;25.56;30.46;101033.00;5094912;28;961;-33
2021/01/06 02:15:27;;;;;;;;;;;;;;;25.83;29.95;101035.59;5090706;28;1498;-35
2021/01/06 02:17:52;;;;;;;;;;;;;;;25.91;29.78;101035.63;5097690;28;810;-35
2021/01/06 02:20:19;;;;;;;;;;;;;;;25.79;29.98;101035.94;5100691;28;985;-32
2021/01/06 02:22:44;;;;;;;;;;;;;;;25.69;30.17;101040.66;5100299;28;998;-33
2021/01/06 02:25:10;;;;;;;;;;;;;;;25.86;29.96;101043.38;5099064;28;799;-32
2021/01/06 02:27:35;;;;;;;;;;;;;;;25.62;30.21;101043.16;5099267;28;1979;-34
2021/01/06 02:30:01;;;;;;;;;;;;;;;25.79;29.98;101045.91;5100149;28;814;-35
2021/01/06 02:32:26;;;;;;;;;;;;;;;25.79;30.22;101057.50;5098767;28;862;-36
2021/01/06 02:34:51;;;;;;;;;;;;;;;26.72;28.61;101052.94;5099391;28;779;-38
2021/01/06 02:37:17;;;;;;;;;;;;;;;26.20;29.17;101058.53;5109253;28;950;-38
2021/01/06 02:39:42;;;;;;;;;;;;;;;26.04;29.55;101068.31;5120560;28;767;-38
2021/01/06 02:42:07;;;;;;;;;;;;;;;25.86;29.89;101065.75;5121043;28;810;-34
2021/01/06 02:44:32;;;;;;;;;;;;;;;25.43;30.63;101063.13;5120319;28;806;-34
2021/01/06 02:46:58;;;;;;;;;;;;;;;25.92;29.88;101065.09;5119324;28;1978;-35
2021/01/06 02:49:24;;;;;;;;;;;;;;;26.04;29.44;101071.00;5120299;28;870;-37
2021/01/06 02:51:53;;;;;;;;;;;;;;;26.00;29.54;101066.97;5117188;28;926;-37
2021/01/06 02:54:20;;;;;;;;;;;;;;;25.50;30.64;101064.16;5117307;28;884;-37
2021/01/06 02:56:45;;;;;;;;;;;;;;;25.62;30.47;101056.63;5118738;28;1115;-38
2021/01/06 02:59:11;;;;;;;;;;;;;;;25.63;30.39;101062.88;5119600;28;838;-35
2021/01/06 03:01:37;;;;;;;;;;;;;;;25.73;30.39;101070.78;5119645;28;1047;-35
2021/01/06 03:04:03;;;;;;;;;;;;;;;26.80;28.50;101074.50;5119088;28;791;-36
2021/01/06 03:06:41;;;;;;;;;;;;;;;26.31;28.81;101062.72;5115732;28;1918;-38
2021/01/06 03:09:16;;;;;;;;;;;;;;;25.78;29.77;101068.44;5098622;28;759;-37
2021/01/06 03:11:41;;;;;;;;;;;;;;;25.87;29.83;101070.16;5098533;28;768;-36
2021/01/06 03:14:06;;;;;;;;;;;;;;;25.14;31.11;101073.28;5099231;28;838;-36
2021/01/06 03:16:31;;;;;;;;;;;;;;;26.04;29.48;101068.31;5099707;28;763;-39
2021/01/06 03:18:57;;;;;;;;;;;;;;;25.94;29.65;101081.13;5099418;28;846;-30
2021/01/06 03:21:22;;;;;;;;;;;;;;;25.88;29.66;101073.69;5100879;28;914;-32
2021/01/06 03:23:48;;;;;;;;;;;;;;;25.70;30.03;101077.38;5118327;28;863;-33
2021/01/06 03:26:14;;;;;;;;;;;;;;;25.02;31.26;101086.22;5118302;28;1906;-38
2021/01/06 03:28:40;;;;;;;;;;;;;;;25.59;30.36;101081.16;5119022;28;854;-34
2021/01/06 03:31:07;;;;;;;;;;;;;;;25.44;30.39;101092.59;5117905;28;794;-29
2021/01/06 03:33:33;;;;;;;;;;;;;;;25.95;29.97;101090.88;5118086;28;1256;-34
2021/01/06 03:36:03;;;;;;;;;;;;;;;26.70;28.61;101096.28;5118241;28;786;-33
2021/01/06 03:38:36;;;;;;;;;;;;;;;26.24;29.12;101104.91;5118080;28;1061;-32
2021/01/06 03:41:01;;;;;;;;;;;;;;;25.83;29.71;101102.97;5118331;28;1347;-31
2021/01/06 03:43:28;;;;;;;;;;;;;;;25.60;30.28;101103.56;5118218;28;750;-34
2021/01/06 03:45:55;;;;;;;;;;;;;;;25.95;29.74;101098.97;5117989;28;838;-35
2021/01/06 03:48:31;;;;;;;;;;;;;;;26.34;28.94;101094.78;5119342;28;1955;-35
2021/01/06 03:51:02;;;;;;;;;;;;;;;26.24;29.04;101096.81;5117564;28;819;-35
2021/01/06 03:53:33;;;;;;;;;;;;;;;25.50;30.34;101109.09;5117373;28;970;-35
2021/01/06 03:56:16;;;;;;;;;;;;;;;26.00;29.48;101115.50;5119268;28;1126;-35
2021/01/06 03:58:44;;;;;;;;;;;;;;;26.02;29.54;101112.63;5117979;28;783;-34
2021/01/06 04:01:24;;;;;;;;;;;;;;;25.22;30.86;101120.09;5108021;28;996;-35
2021/01/06 04:03:59;;;;;;;;;;;;;;;26.51;28.92;101119.06;5098985;28;891;-33
2021/01/06 04:06:24;;;;;;;;;;;;;;;26.73;28.24;101114.81;5100046;28;1913;-33
2021/01/06 04:08:50;;;;;;;;;;;;;;;25.94;29.41;101115.31;5117757;28;783;-39
2021/01/06 04:11:17;;;;;;;;;;;;;;;25.61;29.94;101122.28;5117857;28;803;-33
2021/01/06 04:13:42;;;;;;;;;;;;;;;26.39;29.05;101118.56;5118743;28;766;-33
2021/01/06 04:16:07;;;;;;;;;;;;;;;25.87;29.55;101126.75;5119023;28;786;-35
2021/01/06 04:18:33;;;;;;;;;;;;;;;25.58;29.88;101116.34;5118885;28;901;-34
2021/01/06 04:21:03;;;;;;;;;;;;;;;26.16;29.27;101119.19;5117488;28;790;-34
2021/01/06 04:23:28;;;;;;;;;;;;;;;24.04;23.13;101110.31;5118692;28;942;-37
2021/01/06 04:25:53;;;;;;;;;;;;;;;22.75;25.01;101116.25;5118648;28;763;-40
2021/01/06 04:28:19;;;;;;;;;;;;;;;21.67;26.34;101113.53;5118223;28;1894;-36
2021/01/06 04:30:52;;;;;;;;;;;;;;;21.29;25.59;101106.06;5118934;28;806;-38
2021/01/06 04:33:17;;;;;;;;;;;;;;;21.39;25.94;101098.06;5118081;28;835;-35
2021/01/06 04:35:42;;;;;;;;;;;;;;;20.99;25.99;101105.06;5118164;28;747;-37
2021/01/06 04:38:08;;;;;;;;;;;;;;;21.09;26.39;101108.66;5118436;28;1004;-36
2021/01/06 04:40:35;;;;;;;;;;;;;;;21.06;25.85;101110.75;5118022;28;913;-36
2021/01/06 04:43:06;;;;;;;;;;;;;;;21.00;26.70;101112.16;5118060;28;920;-41
2021/01/06 04:45:32;;;;;;;;;;;;;;;20.18;25.87;101110.84;5118296;28;820;-36
2021/01/06 04:48:00;;;;;;;;;;;;;;;19.77;28.03;101099.06;5116800;28;1952;-36
2021/01/06 04:50:44;;;;;;;;;;;;;;;19.72;27.43;101104.75;5117844;28;826;-37
2021/01/06 04:53:12;;;;;;;;;;;;;;;19.40;27.63;101103.69;5117823;28;946;-35
2021/01/06 04:55:56;;;;;;;;;;;;;;;19.28;27.49;101108.22;5117730;28;1114;-42
2021/01/06 04:58:39;;;;;;;;;;;;;;;19.35;27.50;101097.03;5117427;28;1419;-44
2021/01/06 05:01:05;;;;;;;;;;;;;;;19.94;26.27;101106.53;5118043;28;1412;-36
2021/01/06 05:03:49;;;;;;;;;;;;;;;21.88;23.86;101116.97;5118088;28;838;-36
2021/01/06 05:06:18;;;;;;;;;;;;;;;22.82;22.25;101110.34;5117620;28;1937;-36
2021/01/06 05:08:44;;;;;;;;;;;;;;;23.26;21.39;101109.75;5117738;28;751;-37
2021/01/06 05:11:27;;;;;;;;;;;;;;;23.33;21.39;101113.53;5118315;28;822;-41
2021/01/06 05:13:54;;;;;;;;;;;;;;;23.30;21.50;101121.03;5117585;28;878;-38
2021/01/06 05:16:31;;;;;;;;;;;;;;;23.33;21.78;101116.22;5116492;28;743;-38
2021/01/06 05:18:56;;;;;;;;;;;;;;;23.05;21.82;101121.56;5117805;28;818;-40
2021/01/06 05:21:22;;;;;;;;;;;;;;;22.02;23.06;101118.38;5116093;28;989;-38
2021/01/06 05:23:49;;;;;;;;;;;;;;;23.20;23.56;101110.34;5116503;28;794;-35
2021/01/06 05:26:15;;;;;;;;;;;;;;;24.14;23.83;101112.09;5116529;28;1967;-35
2021/01/06 05:28:40;;;;;;;;;;;;;;;24.32;26.83;101114.78;5117249;28;762;-38
2021/01/06 05:31:05;;;;;;;;;;;;;;;24.38;25.78;101107.94;5115938;28;1490;-41
2021/01/06 05:33:30;;;;;;;;;;;;;;;25.21;24.44;101111.19;5117707;28;818;-39
2021/01/06 05:35:56;;;;;;;;;;;;;;;25.59;23.62;101118.06;5117068;28;775;-40
2021/01/06 05:38:21;;;;;;;;;;;;;;;26.22;23.10;101109.59;5117306;28;1001;-40
2021/01/06 05:40:47;;;;;;;;;;;;;;;26.67;22.53;101117.34;5117508;28;794;-36
2021/01/06 05:43:18;;;;;;;;;;;;;;;26.73;22.92;101112.13;5117273;28;803;-32
2021/01/06 05:45:43;;;;;;;;;;;;;;;27.02;22.69;101113.44;5117493;28;834;-34
2021/01/06 05:48:14;;;;;;;;;;;;;;;27.34;22.74;101124.28;5117368;28;1968;-41
2021/01/06 05:50:39;;;;;;;;;;;;;;;27.53;22.64;101111.34;5116556;28;807;-38
2021/01/06 05:53:17;;;;;;;;;;;;;;;27.74;22.58;101102.66;5116562;28;1001;-42
2021/01/06 05:55:44;;;;;;;;;;;;;;;28.02;22.67;101101.28;5117166;28;1197;-42
2021/01/06 05:58:11;;;;;;;;;;;;;;;28.27;22.54;101103.78;5116605;28;822;-40
2021/01/06 06:00:44;;;;;;;;;;;;;;;28.49;22.68;101103.97;5115995;28;1102;-40
2021/01/06 06:03:22;;;;;;;;;;;;;;;28.70;22.30;101108.66;5115984;28;759;-39
2021/01/06 06:05:56;;;;;;;;;;;;;;;28.33;23.29;101113.06;5115535;28;814;-40
2021/01/06 06:08:21;;;;;;;;;;;;;;;27.97;23.87;101119.91;5098067;28;1909;-37
2021/01/06 06:10:53;;;;;;;;;;;;;;;28.05;23.79;101121.72;5097201;28;793;-35
2021/01/06 06:13:37;;;;;;;;;;;;;;;28.44;23.44;101126.19;5096526;28;823;-32
2021/01/06 06:16:20;;;;;;;;;;;;;;;28.84;23.12;101139.47;5096756;28;807;-41
2021/01/06 06:18:54;;;;;;;;;;;;;;;28.98;22.84;101138.88;5096445;28;791;-42
2021/01/06 06:21:29;;;;;;;;;;;;;;;29.16;22.67;101150.16;5096915;28;930;-39
2021/01/06 06:24:11;;;;;;;;;;;;;;;29.01;22.95;101154.75;5117005;28;747;-40
2021/01/06 06:26:36;;;;;;;;;;;;;;;28.58;23.92;101150.72;5115676;28;1898;-39
2021/01/06 06:29:01;;;;;;;;;;;;;;;28.04;24.48;101150.63;5117096;28;758;-35
2021/01/06 06:31:30;;;;;;;;;;;;;;;28.54;24.10;101152.97;5116520;28;847;-40
2021/01/06 06:33:57;;;;;;;;;;;;;;;28.19;23.08;101160.66;5115285;28;807;-42
2021/01/06 06:36:23;;;;;;;;;;;;;;;27.81;23.78;101161.44;5115132;28;985;-42
2021/01/06 06:38:48;;;;;;;;;;;;;;;28.73;22.90;101162.44;5115521;28;763;-42
2021/01/06 06:41:22;;;;;;;;;;;;;;;28.68;23.23;101159.44;5115191;28;882;-43
2021/01/06 06:44:06;;;;;;;;;;;;;;;28.88;23.11;101156.19;5116936;28;803;-36
2021/01/06 06:46:33;;;;;;;;;;;;;;;28.44;23.78;101163.22;5116939;28;1902;-36
2021/01/06 06:49:21;;;;;;;;;;;;;;;28.00;24.41;101173.63;5116598;28;739;-39
2021/01/06 06:52:00;;;;;;;;;;;;;;;27.94;24.63;101175.19;5110728;28;1539;-42
2021/01/06 06:54:33;;;;;;;;;;;;;;;28.83;23.83;101178.41;5116022;28;728;-42
2021/01/06 06:57:08;;;;;;;;;;;;;;;28.81;24.10;101172.31;5116136;28;1115;-42
2021/01/06 06:59:45;;;;;;;;;;;;;;;27.67;25.54;101181.88;5115750;28;813;-39
2021/01/06 07:02:11;;;;;;;;;;;;;;;28.59;24.72;101185.72;5116981;28;1168;-42
2021/01/06 07:04:56;;;;;;;;;;;;;;;28.34;25.02;101176.97;5117161;28;954;-40
2021/01/06 07:07:34;;;;;;;;;;;;;;;28.27;25.06;101178.69;5110480;28;1972;-42
2021/01/06 07:09:59;;;;;;;;;;;;;;;29.22;23.77;101178.38;5119582;28;847;-39
2021/01/06 07:12:24;;;;;;;;;;;;;;;29.05;24.28;101183.13;5117539;28;824;-41
2021/01/06 07:14:53;;;;;;;;;;;;;;;29.26;23.81;101181.56;5120386;28;763;-38
2021/01/06 07:17:28;;;;;;;;;;;;;;;29.42;23.76;101177.81;5118941;28;767;-47
2021/01/06 07:19:55;;;;;;;;;;;;;;;28.48;25.48;101180.75;5119658;28;743;-47
2021/01/06 07:22:23;;;;;;;;;;;;;;;28.73;24.98;101186.78;5119813;28;954;-39
2021/01/06 07:24:53;;;;;;;;;;;;;;;29.03;24.57;101198.75;5120014;28;818;-40
2021/01/06 07:27:18;;;;;;;;;;;;;;;29.11;24.44;101190.53;5119220;28;1893;-34
2021/01/06 07:29:44;;;;;;;;;;;;;;;27.88;26.56;101189.41;5118686;28;794;-36
2021/01/06 07:32:10;;;;;;;;;;;;;;;28.58;25.48;101191.31;5119886;28;806;-33
2021/01/06 07:34:41;;;;;;;;;;;;;;;29.12;24.96;101188.63;5117980;28;842;-33
2021/01/06 07:37:08;;;;;;;;;;;;;;;29.07;24.79;101184.63;5118782;27;988;-33
2021/01/06 07:39:35;;;;;;;;;;;;;;;28.58;25.87;101186.75;5118200;28;806;-34
2021/01/06 07:42:07;;;;;;;;;;;;;;;28.88;25.30;101182.44;5119218;28;790;-35
2021/01/06 07:44:36;;;;;;;;;;;;;;;29.59;24.36;101181.19;5119631;28;829;-33
2021/01/06 07:47:02;;;;;;;;;;;;;;;29.28;24.66;101185.75;5119075;28;1897;-34
2021/01/06 07:49:39;;;;;;;;;;;;;;;29.11;25.12;101184.25;5117508;28;832;-36
2021/01/06 07:52:05;;;;;;;;;;;;;;;29.62;24.37;101180.81;5117323;28;903;-34
2021/01/06 07:54:40;;;;;;;;;;;;;;;29.46;24.89;101184.53;5119030;28;902;-36
2021/01/06 07:57:06;;;;;;;;;;;;;;;28.69;25.94;101182.78;5102117;28;860;-36
2021/01/06 07:59:37;;;;;;;;;;;;;;;29.34;25.29;101182.28;5119276;28;774;-35
2021/01/06 08:02:10;;;;;;;;;;;;;;;29.56;25.55;101173.41;5118316;28;1047;-37
2021/01/06 08:04:39;;;;;;;;;;;;;;;29.32;24.67;101178.09;5119272;28;757;-34
2021/01/06 08:07:07;;;;;;;;;;;;;;;28.40;25.63;101181.66;5117685;28;1909;-35
2021/01/06 08:09:34;;;;;;;;;;;;;;;28.19;26.56;101174.19;5118239;28;871;-37
2021/01/06 08:12:00;;;;;;;;;;;;;;;28.38;26.49;101172.88;5119112;28;814;-42
2021/01/06 08:14:26;;;;;;;;;;;;;;;29.26;25.18;101178.84;5119016;28;758;-41
2021/01/06 08:16:54;;;;;;;;;;;;;;;29.21;24.76;101180.22;5117792;28;766;-36
2021/01/06 08:19:40;;;;;;;;;;;;;;;29.01;25.50;101181.84;5118965;28;767;-36
2021/01/06 08:22:08;;;;;;;;;;;;;;;28.98;25.63;101193.03;5118085;28;1600;-38
2021/01/06 08:24:37;;;;;;;;;;;;;;;29.41;25.08;101192.38;5116655;28;887;-35
2021/01/06 08:27:02;;;;;;;;;;;;;;;29.26;25.00;101200.53;5118235;28;1902;-35
2021/01/06 08:29:29;;;;;;;;;;;;;;;29.63;25.15;101195.19;5117896;28;1034;-39
2021/01/06 08:31:57;;;;;;;;;;;;;;;30.04;24.20;101193.78;5118050;28;806;-34
2021/01/06 08:34:27;;;;;;;;;;;;;;;29.56;24.95;101192.38;5117199;28;751;-37
2021/01/06 08:36:53;;;;;;;;;;;;;;;29.47;25.14;101188.91;5116345;28;952;-37
2021/01/06 08:39:19;;;;;;;;;;;;;;;29.54;24.99;101192.56;5118356;28;763;-39
2021/01/06 08:41:44;;;;;;;;;;;;;;;29.68;25.10;101181.88;5118119;28;836;-35
2021/01/06 08:44:29;;;;;;;;;;;;;;;28.46;26.95;101172.00;5116748;28;799;-39
2021/01/06 08:46:58;;;;;;;;;;;;;;;29.48;25.49;101168.91;5116493;28;1918;-36
2021/01/06 08:49:25;;;;;;;;;;;;;;;29.50;25.25;101176.84;5117060;28;774;-38
2021/01/06 08:51:51;;;;;;;;;;;;;;;29.32;25.65;101180.81;5117526;28;921;-39
2021/01/06 08:54:19;;;;;;;;;;;;;;;29.90;25.08;101179.22;5116483;28;859;-39
2021/01/06 08:56:45;;;;;;;;;;;;;;;30.24;24.52;101180.47;5115975;28;1320;-35
2021/01/06 08:59:23;;;;;;;;;;;;;;;30.16;24.57;101170.53;5116295;28;1527;-40
2021/01/06 09:01:49;;;;;;;;;;;;;;;29.70;25.11;101174.41;5117302;28;1086;-41
2021/01/06 09:04:16;;;;;;;;;;;;;;;29.59;25.66;101164.91;5117335;28;838;-39
2021/01/06 09:07:07;;;;;;;;;;;;;;;29.82;25.54;101169.34;5111470;28;1977;-40
2021/01/06 09:09:38;;;;;;;;;;;;;;;30.20;25.00;101165.59;5096069;28;770;-41
2021/01/06 09:12:08;;;;;;;;;;;;;;;29.89;25.27;101172.97;5097037;28;818;-38
2021/01/06 09:14:34;;;;;;;;;;;;;;;29.48;24.78;101168.09;5096012;28;1286;-37
2021/01/06 09:17:16;;;;;;;;;;;;;;;28.34;27.24;101158.88;5095528;28;1245;-37
2021/01/06 09:19:43;;;;;;;;;;;;;;;29.85;25.08;101165.41;5095687;28;751;-37
2021/01/06 09:22:09;;;;;;;;;;;;;;;30.17;24.58;101164.09;5103850;28;939;-40
2021/01/06 09:24:35;;;;;;;;;;;;;;;30.30;24.34;101167.97;5115808;28;843;-37
2021/01/06 09:27:04;;;;;;;;;;;;;;;30.39;24.34;101157.81;5115004;28;1905;-38
2021/01/06 09:29:30;;;;;;;;;;;;;;;30.26;24.59;101151.22;5117213;28;817;-40
2021/01/06 09:31:56;;;;;;;;;;;;;;;30.26;24.60;101151.22;5115421;28;1325;-37
2021/01/06 09:34:33;;;;;;;;;;;;;;;30.15;25.03;101144.44;5117120;28;746;-38
2021/01/06 09:36:58;;;;;;;;;;;;;;;30.06;25.03;101142.91;5117020;28;964;-41
2021/01/06 09:39:27;;;;;;;;;;;;;;;30.01;25.47;101143.44;5115217;28;862;-37
2021/01/06 09:41:54;;;;;;;;;;;;;;;30.15;25.04;101146.28;5114573;28;845;-37
2021/01/06 09:44:19;;;;;;;;;;;;;;;30.14;24.89;101133.78;5117066;28;922;-36
2021/01/06 09:46:44;;;;;;;;;;;;;;;30.04;25.51;101136.81;5114951;28;1906;-40
2021/01/06 09:49:10;;;;;;;;;;;;;;;30.06;25.51;101127.44;5116744;28;863;-40
2021/01/06 09:51:37;;;;;;;;;;;;;;;29.97;25.69;101127.75;5115537;28;955;-40
2021/01/06 09:54:03;;;;;;;;;;;;;;;29.93;25.68;101125.44;5115313;28;866;-40
2021/01/06 09:56:29;;;;;;;;;;;;;;;29.93;25.59;101127.31;5115722;28;1151;-40
2021/01/06 09:58:55;;;;;;;;;;;;;;;30.01;25.58;101124.47;5115711;28;874;-35
2021/01/06 10:01:20;;;;;;;;;;;;;;;29.84;25.84;101123.06;5115269;28;1318;-42
2021/01/06 10:03:47;;;;;;;;;;;;;;;29.98;25.86;101115.91;5116897;28;840;-39
2021/01/06 10:06:14;;;;;;;;;;;;;;;29.89;26.11;101121.44;5116266;28;942;-37
2021/01/06 10:09:06;;;;;;;;;;;;;;;29.93;26.01;101127.31;5094944;28;1902;-38
2021/01/06 10:11:37;;;;;;;;;;;;;;;29.87;26.46;101123.50;5093075;28;1063;-37
2021/01/06 10:14:15;;;;;;;;;;;;;;;29.87;26.52;101114.53;5115701;28;799;-39
2021/01/06 10:16:44;;;;;;;;;;;;;;;30.03;26.31;101114.25;5114919;28;812;-40
2021/01/06 10:19:28;;;;;;;;;;;;;;;29.20;24.25;101108.13;5117040;28;814;-39
2021/01/06 10:21:54;;;;;;;;;;;;;;;28.07;23.87;101093.47;5116418;28;922;-33
2021/01/06 10:24:22;;;;;;;;;;;;;;;27.61;24.47;101096.97;5116103;28;599;-38
2021/01/06 10:26:50;;;;;;;;;;;;;;;25.24;26.19;101096.56;5116671;28;1914;-35
2021/01/06 10:29:33;;;;;;;;;;;;;;;25.02;26.90;101099.66;5116434;28;755;-34
2021/01/06 10:31:59;;;;;;;;;;;;;;;24.80;27.39;101092.94;5114856;28;860;-31
2021/01/06 10:34:36;;;;;;;;;;;;;;;25.38;27.16;101076.22;5116987;28;760;-33
2021/01/06 10:37:04;;;;;;;;;;;;;;;25.02;27.95;101082.66;5116063;28;1049;-37
2021/01/06 10:39:39;;;;;;;;;;;;;;;25.96;25.93;101070.19;5118552;28;771;-33
2021/01/06 10:42:17;;;;;;;;;;;;;;;26.68;24.84;101079.41;5119371;28;817;-33
2021/01/06 10:44:54;;;;;;;;;;;;;;;25.29;26.38;101067.31;5120270;27;874;-30
2021/01/06 10:47:32;;;;;;;;;;;;;;;25.79;27.39;101075.53;5118827;28;1968;-33
2021/01/06 10:49:57;;;;;;;;;;;;;;;26.04;25.53;101073.69;5120248;28;782;-32
2021/01/06 10:52:23;;;;;;;;;;;;;;;26.19;25.45;101072.19;5119601;28;906;-32
2021/01/06 10:54:49;;;;;;;;;;;;;;;25.28;27.10;101066.44;5119093;28;1118;-32
2021/01/06 10:57:14;;;;;;;;;;;;;;;25.04;27.53;101064.50;5120002;28;791;-32
2021/01/06 10:59:39;;;;;;;;;;;;;;;26.04;25.85;101052.13;5119946;28;842;-33
2021/01/06 11:02:35;;;;;;;;;;;;;;;26.19;25.43;101054.16;5118704;28;1210;-31
2021/01/06 11:05:11;;;;;;;;;;;;;;;25.69;26.97;101048.75;5064949;28;1031;-41
2021/01/06 11:07:42;;;;;;;;;;;;;;;25.06;28.38;101043.63;5105992;28;1984;-34
2021/01/06 11:10:08;;;;;;;;;;;;;;;26.36;25.80;101046.09;5099785;28;780;-34
2021/01/06 11:12:51;;;;;;;;;;;;;;;26.06;25.77;101035.78;5099499;28;751;-34
2021/01/06 11:15:22;;;;;;;;;;;;;;;25.06;27.45;101047.19;5099363;28;751;-34
2021/01/06 11:18:01;;;;;;;;;;;;;;;26.19;27.33;101038.00;5099380;28;767;-39
2021/01/06 11:20:34;;;;;;;;;;;;;;;27.82;25.24;101022.53;5099511;28;743;-40
2021/01/06 11:23:18;;;;;;;;;;;;;;;28.41;24.32;101025.59;5114442;28;946;-35
2021/01/06 11:25:50;;;;;;;;;;;;;;;28.51;24.31;101022.59;5119580;28;755;-35
2021/01/06 11:28:25;;;;;;;;;;;;;;;28.79;24.01;101025.50;5119341;28;1905;-38
2021/01/06 11:31:05;;;;;;;;;;;;;;;28.71;23.96;101023.72;5119020;28;830;-37
2021/01/06 11:33:30;;;;;;;;;;;;;;;28.85;23.69;101022.03;5118422;28;830;-40
2021/01/06 11:36:02;;;;;;;;;;;;;;;28.85;24.10;101023.88;5119601;28;763;-40
2021/01/06 11:38:48;;;;;;;;;;;;;;;28.95;23.79;101013.59;5118725;28;996;-38
2021/01/06 11:41:39;;;;;;;;;;;;;;;29.09;24.04;101003.78;5119443;28;795;-39
2021/01/06 11:44:09;;;;;;;;;;;;;;;29.19;23.78;101006.22;5102912;28;1070;-39
2021/01/06 11:46:39;;;;;;;;;;;;;;;29.30;23.78;100990.47;5119138;28;1897;-38
2021/01/06 11:49:19;;;;;;;;;;;;;;;29.20;24.07;100996.19;5118211;28;807;-38
2021/01/06 11:52:03;;;;;;;;;;;;;;;29.20;24.12;101004.34;5117604;28;910;-36
2021/01/06 11:54:29;;;;;;;;;;;;;;;29.19;23.84;101002.66;5118827;28;854;-40
2021/01/06 11:57:00;;;;;;;;;;;;;;;29.27;23.86;101005.25;5118846;28;1150;-35
2021/01/06 11:59:31;;;;;;;;;;;;;;;29.27;24.11;101002.53;5117393;28;878;-41
2021/01/06 12:01:59;;;;;;;;;;;;;;;29.59;23.85;100994.16;5119036;28;1118;-41
2021/01/06 12:04:24;;;;;;;;;;;;;;;29.32;24.18;100983.00;5118049;28;782;-40
2021/01/06 12:06:53;;;;;;;;;;;;;;;29.20;24.61;100980.81;5112319;28;1901;-40
2021/01/06 12:09:23;;;;;;;;;;;;;;;29.26;24.29;100976.47;5098547;28;866;-38
2021/01/06 12:11:51;;;;;;;;;;;;;;;29.33;24.47;100977.38;5096930;28;503;-40
2021/01/06 12:14:31;;;;;;;;;;;;;;;29.22;24.47;100972.47;5096716;28;1280;-39
2021/01/06 12:16:56;;;;;;;;;;;;;;;29.21;24.59;100976.22;5097210;28;819;-39
2021/01/06 12:19:42;;;;;;;;;;;;;;;29.45;24.39;100980.44;5098193;28;850;-39
2021/01/06 12:22:09;;;;;;;;;;;;;;;30.07;23.38;100970.94;5094580;28;1380;-41
2021/01/06 12:24:34;;;;;;;;;;;;;;;29.92;23.88;100969.19;5118720;28;806;-39
2021/01/06 12:26:59;;;;;;;;;;;;;;;29.81;24.02;100975.16;5117999;28;1902;-35
2021/01/06 12:29:26;;;;;;;;;;;;;;;29.64;24.44;100986.28;5118201;28;930;-36
2021/01/06 12:31:53;;;;;;;;;;;;;;;29.80;24.47;100984.31;5118299;28;909;-41
2021/01/06 12:34:33;;;;;;;;;;;;;;;29.94;24.29;100988.81;5117058;28;735;-41
2021/01/06 12:37:11;;;;;;;;;;;;;;;29.97;24.09;100984.00;5116633;28;974;-40
2021/01/06 12:39:37;;;;;;;;;;;;;;;30.06;24.12;100980.94;5118244;28;778;-41
2021/01/06 12:42:06;;;;;;;;;;;;;;;30.15;24.04;100973.50;5117051;28;826;-35
2021/01/06 12:44:32;;;;;;;;;;;;;;;29.62;23.88;100968.50;5118016;28;810;-41
2021/01/06 12:46:59;;;;;;;;;;;;;;;29.03;23.71;100969.34;5118027;28;1897;-41
2021/01/06 12:49:27;;;;;;;;;;;;;;;28.22;24.52;100963.69;5118412;28;817;-40
2021/01/06 12:51:56;;;;;;;;;;;;;;;27.34;26.06;100973.00;5116301;28;947;-40
2021/01/06 12:54:21;;;;;;;;;;;;;;;26.75;27.12;100963.50;5117987;28;826;-40
2021/01/06 12:56:47;;;;;;;;;;;;;;;27.38;25.56;100966.22;5116637;28;1166;-40
2021/01/06 12:59:14;;;;;;;;;;;;;;;27.69;24.86;100974.50;5115518;28;941;-41
2021/01/06 13:01:40;;;;;;;;;;;;;;;27.39;25.34;100986.00;5115505;28;1286;-40
2021/01/06 13:04:05;;;;;;;;;;;;;;;26.05;27.27;100980.19;5117792;28;794;-40
2021/01/06 13:06:30;;;;;;;;;;;;;;;26.72;27.01;100975.50;5115342;28;981;-40